sensor_id;sensor_type;location;lat;lon;timestamp;temperature;humidity
11035;DHT22;5571;48.110;-1.706;2024-03-06T00:02:08;5.70;99.90
11035;DHT22;5571;48.110;-1.706;2024-03-06T00:04:34;5.70;99.90
11035;DHT22;5571;48.110;-1.706;2024-03-06T00:06:59;5.70;99.90
11035;DHT22;5571;48.110;-1.706;2024-03-06T00:09:26;5.70;99.90
11035;DHT22;5571;48.110;-1.706;2024-03-06T00:11:55;5.70;99.90
11035;DHT22;5571;48.110;-1.706;2024-03-06T00:14:22;5.60;99.90
11035;DHT22;5571;48.110;-1.706;2024-03-06T00:16:48;5.60;99.90
11035;DHT22;5571;48.110;-1.706;2024-03-06T00:19:18;5.60;99.90
11035;DHT22;5571;48.110;-1.706;2024-03-06T00:21:45;5.60;99.90
11035;DHT22;5571;48.110;-1.706;2024-03-06T00:24:14;5.60;99.90
11035;DHT22;5571;48.110;-1.706;2024-03-06T00:26:44;5.50;99.90
11035;DHT22;5571;48.110;-1.706;2024-03-06T00:29:10;5.60;99.90
11035;DHT22;5571;48.110;-1.706;2024-03-06T00:31:36;5.50;99.90
11035;DHT22;5571;48.110;-1.706;2024-03-06T00:34:02;5.50;99.90
11035;DHT22;5571;48.110;-1.706;2024-03-06T00:36:28;5.60;99.90
11035;DHT22;5571;48.110;-1.706;2024-03-06T00:38:53;5.50;99.90
11035;DHT22;5571;48.110;-1.706;2024-03-06T00:41:19;5.50;99.90
11035;DHT22;5571;48.110;-1.706;2024-03-06T00:43:44;5.50;99.90
11035;DHT22;5571;48.110;-1.706;2024-03-06T00:46:11;5.50;99.90
11035;DHT22;5571;48.110;-1.706;2024-03-06T00:48:36;5.50;99.90
11035;DHT22;5571;48.110;-1.706;2024-03-06T00:51:05;5.50;99.90
11035;DHT22;5571;48.110;-1.706;2024-03-06T00:53:32;5.50;99.90
11035;DHT22;5571;48.110;-1.706;2024-03-06T00:55:57;5.50;99.90
11035;DHT22;5571;48.110;-1.706;2024-03-06T00:58:23;5.50;99.90
11035;DHT22;5571;48.110;-1.706;2024-03-06T01:00:48;5.50;99.90
11035;DHT22;5571;48.110;-1.706;2024-03-06T01:03:14;5.40;99.90
11035;DHT22;5571;48.110;-1.706;2024-03-06T01:05:40;5.40;99.90
11035;DHT22;5571;48.110;-1.706;2024-03-06T01:08:05;5.30;99.90
11035;DHT22;5571;48.110;-1.706;2024-03-06T01:10:31;5.30;99.90
11035;DHT22;5571;48.110;-1.706;2024-03-06T01:12:56;5.30;99.90
11035;DHT22;5571;48.110;-1.706;2024-03-06T01:15:22;5.40;99.90
11035;DHT22;5571;48.110;-1.706;2024-03-06T01:17:48;5.30;99.90
11035;DHT22;5571;48.110;-1.706;2024-03-06T01:20:14;5.30;99.90
11035;DHT22;5571;48.110;-1.706;2024-03-06T01:22:39;5.30;99.90
11035;DHT22;5571;48.110;-1.706;2024-03-06T01:25:05;5.30;99.90
11035;DHT22;5571;48.110;-1.706;2024-03-06T01:27:32;5.30;99.90
11035;DHT22;5571;48.110;-1.706;2024-03-06T01:29:58;5.30;99.90
11035;DHT22;5571;48.110;-1.706;2024-03-06T01:32:23;5.30;99.90
11035;DHT22;5571;48.110;-1.706;2024-03-06T01:34:49;5.30;99.90
11035;DHT22;5571;48.110;-1.706;2024-03-06T01:37:14;5.20;99.90
11035;DHT22;5571;48.110;-1.706;2024-03-06T01:39:40;5.20;99.90
11035;DHT22;5571;48.110;-1.706;2024-03-06T01:42:06;5.20;99.90
11035;DHT22;5571;48.110;-1.706;2024-03-06T01:44:32;5.20;99.90
11035;DHT22;5571;48.110;-1.706;2024-03-06T01:46:58;5.20;99.90
11035;DHT22;5571;48.110;-1.706;2024-03-06T01:49:24;5.20;99.90
11035;DHT22;5571;48.110;-1.706;2024-03-06T01:51:56;5.10;99.90
11035;DHT22;5571;48.110;-1.706;2024-03-06T01:54:24;5.20;99.90
11035;DHT22;5571;48.110;-1.706;2024-03-06T01:56:50;5.10;99.90
11035;DHT22;5571;48.110;-1.706;2024-03-06T01:59:17;5.10;99.90
11035;DHT22;5571;48.110;-1.706;2024-03-06T02:01:43;5.10;99.90
11035;DHT22;5571;48.110;-1.706;2024-03-06T02:04:09;5.10;99.90
11035;DHT22;5571;48.110;-1.706;2024-03-06T02:06:38;5.00;99.90
11035;DHT22;5571;48.110;-1.706;2024-03-06T02:09:04;5.10;99.90
11035;DHT22;5571;48.110;-1.706;2024-03-06T02:11:29;5.00;99.90
11035;DHT22;5571;48.110;-1.706;2024-03-06T02:13:55;5.00;99.90
11035;DHT22;5571;48.110;-1.706;2024-03-06T02:16:21;5.00;99.90
11035;DHT22;5571;48.110;-1.706;2024-03-06T02:18:54;4.90;99.90
11035;DHT22;5571;48.110;-1.706;2024-03-06T02:21:21;4.90;99.90
11035;DHT22;5571;48.110;-1.706;2024-03-06T02:23:47;4.90;99.90
11035;DHT22;5571;48.110;-1.706;2024-03-06T02:26:13;4.90;99.90
11035;DHT22;5571;48.110;-1.706;2024-03-06T02:28:38;4.80;99.90
11035;DHT22;5571;48.110;-1.706;2024-03-06T02:31:04;4.90;99.90
11035;DHT22;5571;48.110;-1.706;2024-03-06T02:33:32;4.90;99.90
11035;DHT22;5571;48.110;-1.706;2024-03-06T02:36:00;4.80;99.90
11035;DHT22;5571;48.110;-1.706;2024-03-06T02:38:25;4.80;99.90
11035;DHT22;5571;48.110;-1.706;2024-03-06T02:40:51;4.90;99.90
11035;DHT22;5571;48.110;-1.706;2024-03-06T02:43:16;4.90;99.90
11035;DHT22;5571;48.110;-1.706;2024-03-06T02:45:42;4.80;99.90
11035;DHT22;5571;48.110;-1.706;2024-03-06T02:48:08;4.70;99.90
11035;DHT22;5571;48.110;-1.706;2024-03-06T02:50:34;4.70;99.90
11035;DHT22;5571;48.110;-1.706;2024-03-06T02:52:59;4.70;99.90
11035;DHT22;5571;48.110;-1.706;2024-03-06T02:55:25;4.70;99.90
11035;DHT22;5571;48.110;-1.706;2024-03-06T02:57:50;4.70;99.90
11035;DHT22;5571;48.110;-1.706;2024-03-06T03:00:16;4.60;99.90
11035;DHT22;5571;48.110;-1.706;2024-03-06T03:02:42;4.60;99.90
11035;DHT22;5571;48.110;-1.706;2024-03-06T03:05:09;4.50;99.90
11035;DHT22;5571;48.110;-1.706;2024-03-06T03:07:34;4.50;99.90
11035;DHT22;5571;48.110;-1.706;2024-03-06T03:10:00;4.50;99.90
11035;DHT22;5571;48.110;-1.706;2024-03-06T03:12:25;4.40;99.90
11035;DHT22;5571;48.110;-1.706;2024-03-06T03:14:51;4.40;99.90
11035;DHT22;5571;48.110;-1.706;2024-03-06T03:17:18;4.40;99.90
11035;DHT22;5571;48.110;-1.706;2024-03-06T03:19:45;4.50;99.90
11035;DHT22;5571;48.110;-1.706;2024-03-06T03:22:10;4.50;99.90
11035;DHT22;5571;48.110;-1.706;2024-03-06T03:24:36;4.50;99.90
11035;DHT22;5571;48.110;-1.706;2024-03-06T03:27:05;4.40;99.90
11035;DHT22;5571;48.110;-1.706;2024-03-06T03:29:31;4.40;99.90
11035;DHT22;5571;48.110;-1.706;2024-03-06T03:31:57;4.40;99.90
11035;DHT22;5571;48.110;-1.706;2024-03-06T03:34:23;4.30;99.90
11035;DHT22;5571;48.110;-1.706;2024-03-06T03:36:48;4.30;99.90
11035;DHT22;5571;48.110;-1.706;2024-03-06T03:39:14;4.30;99.90
11035;DHT22;5571;48.110;-1.706;2024-03-06T03:41:48;4.20;99.90
11035;DHT22;5571;48.110;-1.706;2024-03-06T03:44:14;4.20;99.90
11035;DHT22;5571;48.110;-1.706;2024-03-06T03:46:40;4.20;99.90
11035;DHT22;5571;48.110;-1.706;2024-03-06T03:49:06;4.20;99.90
11035;DHT22;5571;48.110;-1.706;2024-03-06T03:51:32;4.10;99.90
11035;DHT22;5571;48.110;-1.706;2024-03-06T03:53:57;4.10;99.90
11035;DHT22;5571;48.110;-1.706;2024-03-06T03:56:23;4.00;99.90
11035;DHT22;5571;48.110;-1.706;2024-03-06T03:58:48;4.00;99.90
11035;DHT22;5571;48.110;-1.706;2024-03-06T04:01:14;4.00;99.90
11035;DHT22;5571;48.110;-1.706;2024-03-06T04:03:40;4.00;99.90
11035;DHT22;5571;48.110;-1.706;2024-03-06T04:06:08;4.00;99.90
11035;DHT22;5571;48.110;-1.706;2024-03-06T04:08:34;4.00;99.90
11035;DHT22;5571;48.110;-1.706;2024-03-06T04:10:59;4.00;99.90
11035;DHT22;5571;48.110;-1.706;2024-03-06T04:13:25;4.00;99.90
11035;DHT22;5571;48.110;-1.706;2024-03-06T04:15:51;4.00;99.90
11035;DHT22;5571;48.110;-1.706;2024-03-06T04:18:16;4.00;99.90
11035;DHT22;5571;48.110;-1.706;2024-03-06T04:20:42;4.00;99.90
11035;DHT22;5571;48.110;-1.706;2024-03-06T04:23:07;4.10;99.90
11035;DHT22;5571;48.110;-1.706;2024-03-06T04:25:33;4.10;99.90
11035;DHT22;5571;48.110;-1.706;2024-03-06T04:27:59;4.20;99.90
11035;DHT22;5571;48.110;-1.706;2024-03-06T04:30:24;4.10;99.90
11035;DHT22;5571;48.110;-1.706;2024-03-06T04:32:50;4.10;99.90
11035;DHT22;5571;48.110;-1.706;2024-03-06T04:35:16;4.10;99.90
11035;DHT22;5571;48.110;-1.706;2024-03-06T04:37:41;4.20;99.90
11035;DHT22;5571;48.110;-1.706;2024-03-06T04:40:07;4.20;99.90
11035;DHT22;5571;48.110;-1.706;2024-03-06T04:42:36;4.20;99.90
11035;DHT22;5571;48.110;-1.706;2024-03-06T04:45:03;4.20;99.90
11035;DHT22;5571;48.110;-1.706;2024-03-06T04:47:29;4.10;99.90
11035;DHT22;5571;48.110;-1.706;2024-03-06T04:49:55;4.20;99.90
11035;DHT22;5571;48.110;-1.706;2024-03-06T04:52:20;4.10;99.90
11035;DHT22;5571;48.110;-1.706;2024-03-06T04:54:46;4.20;99.90
11035;DHT22;5571;48.110;-1.706;2024-03-06T04:57:11;4.10;99.90
11035;DHT22;5571;48.110;-1.706;2024-03-06T04:59:37;4.10;99.90
11035;DHT22;5571;48.110;-1.706;2024-03-06T05:02:03;3.90;99.90
11035;DHT22;5571;48.110;-1.706;2024-03-06T05:04:29;3.90;99.90
11035;DHT22;5571;48.110;-1.706;2024-03-06T05:06:54;3.90;99.90
11035;DHT22;5571;48.110;-1.706;2024-03-06T05:09:21;3.90;99.90
11035;DHT22;5571;48.110;-1.706;2024-03-06T05:11:46;3.90;99.90
11035;DHT22;5571;48.110;-1.706;2024-03-06T05:14:16;3.90;99.90
11035;DHT22;5571;48.110;-1.706;2024-03-06T05:16:41;3.80;99.90
11035;DHT22;5571;48.110;-1.706;2024-03-06T05:19:07;3.80;99.90
11035;DHT22;5571;48.110;-1.706;2024-03-06T05:21:33;3.80;99.90
11035;DHT22;5571;48.110;-1.706;2024-03-06T05:24:00;3.80;99.90
11035;DHT22;5571;48.110;-1.706;2024-03-06T05:26:26;3.70;99.90
11035;DHT22;5571;48.110;-1.706;2024-03-06T05:28:51;3.70;99.90
11035;DHT22;5571;48.110;-1.706;2024-03-06T05:31:19;3.70;99.90
11035;DHT22;5571;48.110;-1.706;2024-03-06T05:33:47;3.60;99.90
11035;DHT22;5571;48.110;-1.706;2024-03-06T05:36:13;3.60;99.90
11035;DHT22;5571;48.110;-1.706;2024-03-06T05:38:40;3.50;99.90
11035;DHT22;5571;48.110;-1.706;2024-03-06T05:41:06;3.60;99.90
11035;DHT22;5571;48.110;-1.706;2024-03-06T05:43:32;3.50;99.90
11035;DHT22;5571;48.110;-1.706;2024-03-06T05:45:57;3.60;99.90
11035;DHT22;5571;48.110;-1.706;2024-03-06T05:48:23;3.60;99.90
11035;DHT22;5571;48.110;-1.706;2024-03-06T05:50:49;3.50;99.90
11035;DHT22;5571;48.110;-1.706;2024-03-06T05:53:15;3.60;99.90
11035;DHT22;5571;48.110;-1.706;2024-03-06T05:55:40;3.60;99.90
11035;DHT22;5571;48.110;-1.706;2024-03-06T05:58:06;3.50;99.90
11035;DHT22;5571;48.110;-1.706;2024-03-06T06:00:31;3.40;99.90
11035;DHT22;5571;48.110;-1.706;2024-03-06T06:02:58;3.40;99.90
11035;DHT22;5571;48.110;-1.706;2024-03-06T06:05:24;3.20;99.90
11035;DHT22;5571;48.110;-1.706;2024-03-06T06:07:51;3.30;99.90
11035;DHT22;5571;48.110;-1.706;2024-03-06T06:10:16;3.20;99.90
11035;DHT22;5571;48.110;-1.706;2024-03-06T06:12:42;3.20;99.90
11035;DHT22;5571;48.110;-1.706;2024-03-06T06:15:08;3.20;99.90
11035;DHT22;5571;48.110;-1.706;2024-03-06T06:17:34;3.10;99.90
11035;DHT22;5571;48.110;-1.706;2024-03-06T06:20:00;3.10;99.90
11035;DHT22;5571;48.110;-1.706;2024-03-06T06:22:28;3.00;99.90
11035;DHT22;5571;48.110;-1.706;2024-03-06T06:24:54;3.00;99.90
11035;DHT22;5571;48.110;-1.706;2024-03-06T06:27:21;3.00;99.90
11035;DHT22;5571;48.110;-1.706;2024-03-06T06:29:46;3.00;99.90
11035;DHT22;5571;48.110;-1.706;2024-03-06T06:32:12;3.10;99.90
11035;DHT22;5571;48.110;-1.706;2024-03-06T06:34:38;3.10;99.90
11035;DHT22;5571;48.110;-1.706;2024-03-06T06:37:03;3.10;99.90
11035;DHT22;5571;48.110;-1.706;2024-03-06T06:39:29;3.00;99.90
11035;DHT22;5571;48.110;-1.706;2024-03-06T06:41:54;3.10;99.90
11035;DHT22;5571;48.110;-1.706;2024-03-06T06:44:20;3.10;99.90
11035;DHT22;5571;48.110;-1.706;2024-03-06T06:46:45;3.20;99.90
11035;DHT22;5571;48.110;-1.706;2024-03-06T06:49:11;3.10;99.90
11035;DHT22;5571;48.110;-1.706;2024-03-06T06:51:36;3.00;99.90
11035;DHT22;5571;48.110;-1.706;2024-03-06T06:54:02;3.10;99.90
11035;DHT22;5571;48.110;-1.706;2024-03-06T06:56:29;3.20;99.90
11035;DHT22;5571;48.110;-1.706;2024-03-06T06:58:55;3.20;99.90
11035;DHT22;5571;48.110;-1.706;2024-03-06T07:01:21;3.30;99.90
11035;DHT22;5571;48.110;-1.706;2024-03-06T07:03:47;3.30;99.90
11035;DHT22;5571;48.110;-1.706;2024-03-06T07:06:13;3.30;99.90
11035;DHT22;5571;48.110;-1.706;2024-03-06T07:08:39;3.30;99.90
11035;DHT22;5571;48.110;-1.706;2024-03-06T07:11:04;3.30;99.90
11035;DHT22;5571;48.110;-1.706;2024-03-06T07:13:30;3.30;99.90
11035;DHT22;5571;48.110;-1.706;2024-03-06T07:15:56;3.40;99.90
11035;DHT22;5571;48.110;-1.706;2024-03-06T07:18:21;3.50;99.90
11035;DHT22;5571;48.110;-1.706;2024-03-06T07:20:47;3.40;99.90
11035;DHT22;5571;48.110;-1.706;2024-03-06T07:23:13;3.40;99.90
11035;DHT22;5571;48.110;-1.706;2024-03-06T07:25:38;3.50;99.90
11035;DHT22;5571;48.110;-1.706;2024-03-06T07:28:05;3.50;99.90
11035;DHT22;5571;48.110;-1.706;2024-03-06T07:30:30;3.60;99.90
11035;DHT22;5571;48.110;-1.706;2024-03-06T07:32:56;3.70;99.90
11035;DHT22;5571;48.110;-1.706;2024-03-06T07:35:23;3.70;99.90
11035;DHT22;5571;48.110;-1.706;2024-03-06T07:37:49;3.80;99.90
11035;DHT22;5571;48.110;-1.706;2024-03-06T07:40:14;3.80;99.90
11035;DHT22;5571;48.110;-1.706;2024-03-06T07:42:40;3.80;99.90
11035;DHT22;5571;48.110;-1.706;2024-03-06T07:45:06;3.90;99.90
11035;DHT22;5571;48.110;-1.706;2024-03-06T07:47:35;4.00;99.90
11035;DHT22;5571;48.110;-1.706;2024-03-06T07:50:04;4.00;99.90
11035;DHT22;5571;48.110;-1.706;2024-03-06T07:52:31;4.10;99.90
11035;DHT22;5571;48.110;-1.706;2024-03-06T07:54:57;4.20;99.90
11035;DHT22;5571;48.110;-1.706;2024-03-06T07:57:23;4.30;99.90
11035;DHT22;5571;48.110;-1.706;2024-03-06T07:59:49;4.40;99.90
11035;DHT22;5571;48.110;-1.706;2024-03-06T08:02:16;4.50;99.90
11035;DHT22;5571;48.110;-1.706;2024-03-06T08:04:42;4.50;99.90
11035;DHT22;5571;48.110;-1.706;2024-03-06T08:07:08;4.70;99.90
11035;DHT22;5571;48.110;-1.706;2024-03-06T08:09:33;4.70;99.90
11035;DHT22;5571;48.110;-1.706;2024-03-06T08:11:59;4.70;99.90
11035;DHT22;5571;48.110;-1.706;2024-03-06T08:14:25;4.80;99.90
11035;DHT22;5571;48.110;-1.706;2024-03-06T08:16:51;4.90;99.90
11035;DHT22;5571;48.110;-1.706;2024-03-06T08:19:16;5.00;99.90
11035;DHT22;5571;48.110;-1.706;2024-03-06T08:21:42;5.10;99.90
11035;DHT22;5571;48.110;-1.706;2024-03-06T08:24:07;5.20;99.90
11035;DHT22;5571;48.110;-1.706;2024-03-06T08:26:33;5.20;99.90
11035;DHT22;5571;48.110;-1.706;2024-03-06T08:28:59;5.40;99.90
11035;DHT22;5571;48.110;-1.706;2024-03-06T08:31:24;5.40;99.90
11035;DHT22;5571;48.110;-1.706;2024-03-06T08:33:51;5.50;99.90
11035;DHT22;5571;48.110;-1.706;2024-03-06T08:36:18;5.60;99.90
11035;DHT22;5571;48.110;-1.706;2024-03-06T08:38:44;5.70;99.90
11035;DHT22;5571;48.110;-1.706;2024-03-06T08:41:10;5.80;99.90
11035;DHT22;5571;48.110;-1.706;2024-03-06T08:43:35;5.90;99.90
11035;DHT22;5571;48.110;-1.706;2024-03-06T08:46:01;6.00;99.90
11035;DHT22;5571;48.110;-1.706;2024-03-06T08:48:27;6.20;99.90
11035;DHT22;5571;48.110;-1.706;2024-03-06T08:50:52;6.30;99.90
11035;DHT22;5571;48.110;-1.706;2024-03-06T08:53:18;6.40;99.90
11035;DHT22;5571;48.110;-1.706;2024-03-06T08:55:44;6.60;99.90
11035;DHT22;5571;48.110;-1.706;2024-03-06T08:58:09;6.60;99.90
11035;DHT22;5571;48.110;-1.706;2024-03-06T09:00:35;6.80;99.90
11035;DHT22;5571;48.110;-1.706;2024-03-06T09:03:00;6.90;99.90
11035;DHT22;5571;48.110;-1.706;2024-03-06T09:05:26;7.00;99.90
11035;DHT22;5571;48.110;-1.706;2024-03-06T09:07:51;7.00;99.90
11035;DHT22;5571;48.110;-1.706;2024-03-06T09:10:17;7.10;99.90
11035;DHT22;5571;48.110;-1.706;2024-03-06T09:12:44;7.20;99.90
11035;DHT22;5571;48.110;-1.706;2024-03-06T09:15:10;7.40;99.90
11035;DHT22;5571;48.110;-1.706;2024-03-06T09:17:37;7.50;99.90
11035;DHT22;5571;48.110;-1.706;2024-03-06T09:20:04;7.60;99.90
11035;DHT22;5571;48.110;-1.706;2024-03-06T09:22:37;7.60;99.90
11035;DHT22;5571;48.110;-1.706;2024-03-06T09:25:04;7.70;99.90
11035;DHT22;5571;48.110;-1.706;2024-03-06T09:27:29;7.80;99.90
11035;DHT22;5571;48.110;-1.706;2024-03-06T09:29:55;7.80;99.90
11035;DHT22;5571;48.110;-1.706;2024-03-06T09:32:21;8.00;99.90
11035;DHT22;5571;48.110;-1.706;2024-03-06T09:34:47;8.10;99.90
11035;DHT22;5571;48.110;-1.706;2024-03-06T09:37:13;8.20;99.90
11035;DHT22;5571;48.110;-1.706;2024-03-06T09:39:40;8.30;99.90
11035;DHT22;5571;48.110;-1.706;2024-03-06T09:42:06;8.40;99.90
11035;DHT22;5571;48.110;-1.706;2024-03-06T09:44:32;8.50;99.90
11035;DHT22;5571;48.110;-1.706;2024-03-06T09:46:59;8.50;99.90
11035;DHT22;5571;48.110;-1.706;2024-03-06T09:49:28;8.70;99.90
11035;DHT22;5571;48.110;-1.706;2024-03-06T09:51:56;8.70;99.90
11035;DHT22;5571;48.110;-1.706;2024-03-06T09:54:25;8.90;99.90
11035;DHT22;5571;48.110;-1.706;2024-03-06T09:56:52;9.00;99.90
11035;DHT22;5571;48.110;-1.706;2024-03-06T09:59:18;9.00;99.90
11035;DHT22;5571;48.110;-1.706;2024-03-06T10:01:57;9.20;99.90
11035;DHT22;5571;48.110;-1.706;2024-03-06T10:04:24;9.30;99.90
11035;DHT22;5571;48.110;-1.706;2024-03-06T10:06:57;9.40;99.90
11035;DHT22;5571;48.110;-1.706;2024-03-06T10:09:23;9.40;99.90
11035;DHT22;5571;48.110;-1.706;2024-03-06T10:11:49;9.50;99.90
11035;DHT22;5571;48.110;-1.706;2024-03-06T10:14:15;9.70;99.90
11035;DHT22;5571;48.110;-1.706;2024-03-06T10:16:58;9.80;99.90
11035;DHT22;5571;48.110;-1.706;2024-03-06T10:19:25;9.90;99.90
11035;DHT22;5571;48.110;-1.706;2024-03-06T10:21:53;10.00;99.90
11035;DHT22;5571;48.110;-1.706;2024-03-06T10:24:28;10.10;99.90
11035;DHT22;5571;48.110;-1.706;2024-03-06T10:26:58;10.20;99.90
11035;DHT22;5571;48.110;-1.706;2024-03-06T10:29:25;10.40;99.90
11035;DHT22;5571;48.110;-1.706;2024-03-06T10:31:53;10.50;99.90
11035;DHT22;5571;48.110;-1.706;2024-03-06T10:34:24;10.60;99.90
11035;DHT22;5571;48.110;-1.706;2024-03-06T10:37:01;10.70;99.90
11035;DHT22;5571;48.110;-1.706;2024-03-06T10:39:30;10.70;99.90
11035;DHT22;5571;48.110;-1.706;2024-03-06T10:42:02;10.80;99.90
11035;DHT22;5571;48.110;-1.706;2024-03-06T10:44:28;10.90;99.90
11035;DHT22;5571;48.110;-1.706;2024-03-06T10:47:00;10.90;99.90
11035;DHT22;5571;48.110;-1.706;2024-03-06T10:49:27;10.90;99.90
11035;DHT22;5571;48.110;-1.706;2024-03-06T10:51:57;11.10;99.90
11035;DHT22;5571;48.110;-1.706;2024-03-06T10:54:27;11.20;99.90
11035;DHT22;5571;48.110;-1.706;2024-03-06T10:56:54;11.50;99.90
11035;DHT22;5571;48.110;-1.706;2024-03-06T10:59:20;11.70;99.90
11035;DHT22;5571;48.110;-1.706;2024-03-06T11:01:47;12.00;99.90
11035;DHT22;5571;48.110;-1.706;2024-03-06T11:04:13;12.10;99.90
11035;DHT22;5571;48.110;-1.706;2024-03-06T11:06:40;12.00;99.90
11035;DHT22;5571;48.110;-1.706;2024-03-06T11:09:07;11.60;99.90
11035;DHT22;5571;48.110;-1.706;2024-03-06T11:11:50;11.80;99.90
11035;DHT22;5571;48.110;-1.706;2024-03-06T11:14:21;11.90;99.90
11035;DHT22;5571;48.110;-1.706;2024-03-06T11:17:04;12.20;99.90
11035;DHT22;5571;48.110;-1.706;2024-03-06T11:19:31;12.20;99.90
11035;DHT22;5571;48.110;-1.706;2024-03-06T11:21:57;12.30;99.90
11035;DHT22;5571;48.110;-1.706;2024-03-06T11:24:23;12.30;99.90
11035;DHT22;5571;48.110;-1.706;2024-03-06T11:27:01;12.40;99.90
11035;DHT22;5571;48.110;-1.706;2024-03-06T11:33:00;12.70;99.90
11035;DHT22;5571;48.110;-1.706;2024-03-06T11:35:28;13.10;99.90
11035;DHT22;5571;48.110;-1.706;2024-03-06T11:37:54;13.20;99.90
11035;DHT22;5571;48.110;-1.706;2024-03-06T11:40:23;13.40;99.90
11035;DHT22;5571;48.110;-1.706;2024-03-06T11:42:49;13.20;99.90
11035;DHT22;5571;48.110;-1.706;2024-03-06T11:45:16;13.40;99.90
11035;DHT22;5571;48.110;-1.706;2024-03-06T11:47:59;13.40;99.90
11035;DHT22;5571;48.110;-1.706;2024-03-06T11:50:26;13.60;99.90
11035;DHT22;5571;48.110;-1.706;2024-03-06T11:52:53;13.30;99.90
11035;DHT22;5571;48.110;-1.706;2024-03-06T11:55:21;12.90;99.90
11035;DHT22;5571;48.110;-1.706;2024-03-06T11:57:47;12.40;99.90
11035;DHT22;5571;48.110;-1.706;2024-03-06T12:00:13;12.40;99.90
11035;DHT22;5571;48.110;-1.706;2024-03-06T12:02:40;12.00;99.90
11035;DHT22;5571;48.110;-1.706;2024-03-06T12:05:06;12.30;99.90
11035;DHT22;5571;48.110;-1.706;2024-03-06T12:07:32;12.70;99.90
11035;DHT22;5571;48.110;-1.706;2024-03-06T12:09:59;12.90;99.90
11035;DHT22;5571;48.110;-1.706;2024-03-06T12:12:24;12.90;99.90
11035;DHT22;5571;48.110;-1.706;2024-03-06T12:14:59;12.40;99.90
11035;DHT22;5571;48.110;-1.706;2024-03-06T12:17:29;12.20;99.90
11035;DHT22;5571;48.110;-1.706;2024-03-06T12:19:56;12.20;99.90
11035;DHT22;5571;48.110;-1.706;2024-03-06T12:22:25;12.20;99.90
11035;DHT22;5571;48.110;-1.706;2024-03-06T12:25:01;12.10;99.90
11035;DHT22;5571;48.110;-1.706;2024-03-06T12:27:26;11.80;99.90
11035;DHT22;5571;48.110;-1.706;2024-03-06T12:29:53;11.70;99.90
11035;DHT22;5571;48.110;-1.706;2024-03-06T12:32:19;11.70;99.90
11035;DHT22;5571;48.110;-1.706;2024-03-06T12:34:44;11.70;99.90
11035;DHT22;5571;48.110;-1.706;2024-03-06T12:37:31;11.60;99.90
11035;DHT22;5571;48.110;-1.706;2024-03-06T12:39:57;11.90;99.90
11035;DHT22;5571;48.110;-1.706;2024-03-06T12:42:23;12.00;99.90
11035;DHT22;5571;48.110;-1.706;2024-03-06T12:44:50;11.90;99.90
11035;DHT22;5571;48.110;-1.706;2024-03-06T12:47:15;11.80;99.90
11035;DHT22;5571;48.110;-1.706;2024-03-06T12:49:41;11.70;99.90
11035;DHT22;5571;48.110;-1.706;2024-03-06T12:52:07;11.60;99.90
11035;DHT22;5571;48.110;-1.706;2024-03-06T12:54:32;11.60;99.90
11035;DHT22;5571;48.110;-1.706;2024-03-06T12:56:58;11.60;99.90
11035;DHT22;5571;48.110;-1.706;2024-03-06T12:59:24;11.40;99.90
11035;DHT22;5571;48.110;-1.706;2024-03-06T13:01:49;11.30;99.90
11035;DHT22;5571;48.110;-1.706;2024-03-06T13:04:16;11.30;99.90
11035;DHT22;5571;48.110;-1.706;2024-03-06T13:06:41;11.40;99.90
11035;DHT22;5571;48.110;-1.706;2024-03-06T13:09:07;11.50;99.90
11035;DHT22;5571;48.110;-1.706;2024-03-06T13:11:32;11.60;99.90
11035;DHT22;5571;48.110;-1.706;2024-03-06T13:13:58;11.40;99.90
11035;DHT22;5571;48.110;-1.706;2024-03-06T13:16:26;11.40;99.90
11035;DHT22;5571;48.110;-1.706;2024-03-06T13:18:52;11.40;99.90
11035;DHT22;5571;48.110;-1.706;2024-03-06T13:21:20;11.40;99.90
11035;DHT22;5571;48.110;-1.706;2024-03-06T13:23:45;11.50;99.90
11035;DHT22;5571;48.110;-1.706;2024-03-06T13:26:11;11.60;99.90
11035;DHT22;5571;48.110;-1.706;2024-03-06T13:28:38;11.50;99.90
11035;DHT22;5571;48.110;-1.706;2024-03-06T13:31:04;11.50;99.90
11035;DHT22;5571;48.110;-1.706;2024-03-06T13:33:32;11.50;99.90
11035;DHT22;5571;48.110;-1.706;2024-03-06T13:35:58;11.50;99.90
11035;DHT22;5571;48.110;-1.706;2024-03-06T13:38:24;11.50;99.90
11035;DHT22;5571;48.110;-1.706;2024-03-06T13:40:49;11.40;99.90
11035;DHT22;5571;48.110;-1.706;2024-03-06T13:43:15;11.50;99.90
11035;DHT22;5571;48.110;-1.706;2024-03-06T13:45:50;11.50;99.90
11035;DHT22;5571;48.110;-1.706;2024-03-06T13:48:16;11.60;99.90
11035;DHT22;5571;48.110;-1.706;2024-03-06T13:50:45;11.70;99.90
11035;DHT22;5571;48.110;-1.706;2024-03-06T13:53:11;11.70;99.90
11035;DHT22;5571;48.110;-1.706;2024-03-06T13:55:37;11.70;99.90
11035;DHT22;5571;48.110;-1.706;2024-03-06T13:58:03;11.70;99.90
11035;DHT22;5571;48.110;-1.706;2024-03-06T14:00:29;11.70;99.90
11035;DHT22;5571;48.110;-1.706;2024-03-06T14:02:55;11.60;99.90
11035;DHT22;5571;48.110;-1.706;2024-03-06T14:05:21;11.60;99.90
11035;DHT22;5571;48.110;-1.706;2024-03-06T14:07:53;11.50;99.90
11035;DHT22;5571;48.110;-1.706;2024-03-06T14:10:20;11.50;99.90
11035;DHT22;5571;48.110;-1.706;2024-03-06T14:12:47;11.60;99.90
11035;DHT22;5571;48.110;-1.706;2024-03-06T14:15:13;11.70;99.90
11035;DHT22;5571;48.110;-1.706;2024-03-06T14:17:40;11.70;99.90
11035;DHT22;5571;48.110;-1.706;2024-03-06T14:20:06;11.90;99.90
11035;DHT22;5571;48.110;-1.706;2024-03-06T14:22:31;12.00;99.90
11035;DHT22;5571;48.110;-1.706;2024-03-06T14:24:57;12.00;99.90
11035;DHT22;5571;48.110;-1.706;2024-03-06T14:27:23;11.90;99.90
11035;DHT22;5571;48.110;-1.706;2024-03-06T14:29:48;12.00;99.90
11035;DHT22;5571;48.110;-1.706;2024-03-06T14:32:15;11.90;99.90
11035;DHT22;5571;48.110;-1.706;2024-03-06T14:34:43;11.90;99.90
11035;DHT22;5571;48.110;-1.706;2024-03-06T14:37:10;11.90;99.90
11035;DHT22;5571;48.110;-1.706;2024-03-06T14:39:36;11.90;99.90
11035;DHT22;5571;48.110;-1.706;2024-03-06T14:42:02;11.90;99.90
11035;DHT22;5571;48.110;-1.706;2024-03-06T14:44:29;11.90;99.90
11035;DHT22;5571;48.110;-1.706;2024-03-06T14:46:56;11.90;99.90
11035;DHT22;5571;48.110;-1.706;2024-03-06T14:49:21;11.90;99.90
11035;DHT22;5571;48.110;-1.706;2024-03-06T14:51:47;11.80;99.90
11035;DHT22;5571;48.110;-1.706;2024-03-06T14:54:13;11.90;99.90
11035;DHT22;5571;48.110;-1.706;2024-03-06T14:56:39;11.90;99.90
11035;DHT22;5571;48.110;-1.706;2024-03-06T14:59:05;11.90;99.90
11035;DHT22;5571;48.110;-1.706;2024-03-06T15:01:30;11.90;99.90
11035;DHT22;5571;48.110;-1.706;2024-03-06T15:03:56;11.90;99.90
11035;DHT22;5571;48.110;-1.706;2024-03-06T15:06:22;11.90;99.90
11035;DHT22;5571;48.110;-1.706;2024-03-06T15:08:48;11.90;99.90
11035;DHT22;5571;48.110;-1.706;2024-03-06T15:11:13;11.90;99.90
11035;DHT22;5571;48.110;-1.706;2024-03-06T15:13:40;11.80;99.90
11035;DHT22;5571;48.110;-1.706;2024-03-06T15:16:06;11.70;99.90
11035;DHT22;5571;48.110;-1.706;2024-03-06T15:18:34;11.60;99.90
11035;DHT22;5571;48.110;-1.706;2024-03-06T15:20:59;11.60;99.90
11035;DHT22;5571;48.110;-1.706;2024-03-06T15:23:25;11.50;99.90
11035;DHT22;5571;48.110;-1.706;2024-03-06T15:25:50;11.60;99.90
11035;DHT22;5571;48.110;-1.706;2024-03-06T15:28:16;11.50;99.90
11035;DHT22;5571;48.110;-1.706;2024-03-06T15:30:42;11.50;99.90
11035;DHT22;5571;48.110;-1.706;2024-03-06T15:33:07;11.50;99.90
11035;DHT22;5571;48.110;-1.706;2024-03-06T15:35:34;11.60;99.90
11035;DHT22;5571;48.110;-1.706;2024-03-06T15:37:59;11.60;99.90
11035;DHT22;5571;48.110;-1.706;2024-03-06T15:40:25;11.60;99.90